sensor_id;sensor_type;location;lat;lon;timestamp;P1;durP1;ratioP1;P2;durP2;ratioP2
817;SDS011;391;51.052;6.954;2023-04-24T00:01:40;1.30;;;1.00;;
817;SDS011;391;51.052;6.954;2023-04-24T00:03:45;1.23;;;1.00;;
817;SDS011;391;51.052;6.954;2023-04-24T00:05:49;2.10;;;1.83;;
817;SDS011;391;51.052;6.954;2023-04-24T00:07:53;2.33;;;2.13;;
817;SDS011;391;51.052;6.954;2023-04-24T00:09:57;1.40;;;1.00;;
817;SDS011;391;51.052;6.954;2023-04-24T00:12:00;1.40;;;0.93;;
817;SDS011;391;51.052;6.954;2023-04-24T00:14:06;1.07;;;0.80;;
817;SDS011;391;51.052;6.954;2023-04-24T00:16:11;1.00;;;0.90;;
817;SDS011;391;51.052;6.954;2023-04-24T00:18:14;0.90;;;0.80;;
817;SDS011;391;51.052;6.954;2023-04-24T00:20:18;0.87;;;0.70;;
817;SDS011;391;51.052;6.954;2023-04-24T00:22:21;1.10;;;0.80;;
817;SDS011;391;51.052;6.954;2023-04-24T00:24:25;1.43;;;1.00;;
817;SDS011;391;51.052;6.954;2023-04-24T00:26:28;1.23;;;0.93;;
817;SDS011;391;51.052;6.954;2023-04-24T00:28:32;1.37;;;0.90;;
817;SDS011;391;51.052;6.954;2023-04-24T00:30:35;2.10;;;1.00;;
817;SDS011;391;51.052;6.954;2023-04-24T00:32:41;1.20;;;0.83;;
817;SDS011;391;51.052;6.954;2023-04-24T00:34:44;0.90;;;0.80;;
817;SDS011;391;51.052;6.954;2023-04-24T00:36:48;1.43;;;0.97;;
817;SDS011;391;51.052;6.954;2023-04-24T00:38:54;1.10;;;0.77;;
817;SDS011;391;51.052;6.954;2023-04-24T00:40:58;2.60;;;1.30;;
817;SDS011;391;51.052;6.954;2023-04-24T00:43:01;1.53;;;0.93;;
817;SDS011;391;51.052;6.954;2023-04-24T00:45:06;2.00;;;1.10;;
817;SDS011;391;51.052;6.954;2023-04-24T00:47:13;1.37;;;1.03;;
817;SDS011;391;51.052;6.954;2023-04-24T00:49:18;2.00;;;1.10;;
817;SDS011;391;51.052;6.954;2023-04-24T00:51:22;1.10;;;1.00;;
817;SDS011;391;51.052;6.954;2023-04-24T00:53:26;1.00;;;0.90;;
817;SDS011;391;51.052;6.954;2023-04-24T00:55:30;1.10;;;0.90;;
817;SDS011;391;51.052;6.954;2023-04-24T00:57:33;2.20;;;1.03;;
817;SDS011;391;51.052;6.954;2023-04-24T00:59:38;3.93;;;1.10;;
817;SDS011;391;51.052;6.954;2023-04-24T01:01:43;1.53;;;1.10;;
817;SDS011;391;51.052;6.954;2023-04-24T01:03:50;1.50;;;1.00;;
817;SDS011;391;51.052;6.954;2023-04-24T01:05:56;2.50;;;1.33;;
817;SDS011;391;51.052;6.954;2023-04-24T01:07:59;1.17;;;1.07;;
817;SDS011;391;51.052;6.954;2023-04-24T01:10:04;1.40;;;1.20;;
817;SDS011;391;51.052;6.954;2023-04-24T01:12:09;2.00;;;0.90;;
817;SDS011;391;51.052;6.954;2023-04-24T01:14:13;1.90;;;1.53;;
817;SDS011;391;51.052;6.954;2023-04-24T01:16:17;2.77;;;1.10;;
817;SDS011;391;51.052;6.954;2023-04-24T01:18:23;2.33;;;1.00;;
817;SDS011;391;51.052;6.954;2023-04-24T01:20:26;2.37;;;1.30;;
817;SDS011;391;51.052;6.954;2023-04-24T01:22:33;2.40;;;1.30;;
817;SDS011;391;51.052;6.954;2023-04-24T01:24:37;1.70;;;1.00;;
817;SDS011;391;51.052;6.954;2023-04-24T01:26:41;1.70;;;1.37;;
817;SDS011;391;51.052;6.954;2023-04-24T01:28:46;1.10;;;0.90;;
817;SDS011;391;51.052;6.954;2023-04-24T01:30:50;1.67;;;1.57;;
817;SDS011;391;51.052;6.954;2023-04-24T01:32:57;2.40;;;1.33;;
817;SDS011;391;51.052;6.954;2023-04-24T01:35:02;2.17;;;1.30;;
817;SDS011;391;51.052;6.954;2023-04-24T01:37:06;2.23;;;1.33;;
817;SDS011;391;51.052;6.954;2023-04-24T01:39:11;1.50;;;1.40;;
817;SDS011;391;51.052;6.954;2023-04-24T01:41:15;2.43;;;1.70;;
817;SDS011;391;51.052;6.954;2023-04-24T01:43:19;2.13;;;1.93;;
817;SDS011;391;51.052;6.954;2023-04-24T01:45:24;2.43;;;2.20;;
817;SDS011;391;51.052;6.954;2023-04-24T01:47:28;2.97;;;2.77;;
817;SDS011;391;51.052;6.954;2023-04-24T01:49:33;3.20;;;2.33;;
817;SDS011;391;51.052;6.954;2023-04-24T01:51:37;2.50;;;2.30;;
817;SDS011;391;51.052;6.954;2023-04-24T01:53:40;4.10;;;3.00;;
817;SDS011;391;51.052;6.954;2023-04-24T01:55:45;4.80;;;3.60;;
817;SDS011;391;51.052;6.954;2023-04-24T01:57:49;3.10;;;2.80;;
817;SDS011;391;51.052;6.954;2023-04-24T01:59:55;3.10;;;2.80;;
817;SDS011;391;51.052;6.954;2023-04-24T02:01:58;3.90;;;3.50;;
817;SDS011;391;51.052;6.954;2023-04-24T02:04:02;3.60;;;3.30;;
817;SDS011;391;51.052;6.954;2023-04-24T02:06:05;3.87;;;3.50;;
817;SDS011;391;51.052;6.954;2023-04-24T02:08:09;7.43;;;3.70;;
817;SDS011;391;51.052;6.954;2023-04-24T02:10:12;5.40;;;4.07;;
817;SDS011;391;51.052;6.954;2023-04-24T02:12:18;4.17;;;3.10;;
817;SDS011;391;51.052;6.954;2023-04-24T02:14:24;4.37;;;3.57;;
817;SDS011;391;51.052;6.954;2023-04-24T02:16:27;4.27;;;3.87;;
817;SDS011;391;51.052;6.954;2023-04-24T02:18:34;6.30;;;5.10;;
817;SDS011;391;51.052;6.954;2023-04-24T02:20:38;4.53;;;3.83;;
817;SDS011;391;51.052;6.954;2023-04-24T02:22:42;4.10;;;3.70;;
817;SDS011;391;51.052;6.954;2023-04-24T02:24:45;4.23;;;3.83;;
817;SDS011;391;51.052;6.954;2023-04-24T02:26:50;5.60;;;5.10;;
817;SDS011;391;51.052;6.954;2023-04-24T02:28:57;4.47;;;4.07;;
817;SDS011;391;51.052;6.954;2023-04-24T02:31:01;4.50;;;4.00;;
817;SDS011;391;51.052;6.954;2023-04-24T02:33:05;6.97;;;5.60;;
817;SDS011;391;51.052;6.954;2023-04-24T02:35:09;6.93;;;4.37;;
817;SDS011;391;51.052;6.954;2023-04-24T02:37:13;5.30;;;4.80;;
817;SDS011;391;51.052;6.954;2023-04-24T02:39:18;5.00;;;4.50;;
817;SDS011;391;51.052;6.954;2023-04-24T02:41:22;6.17;;;4.10;;
817;SDS011;391;51.052;6.954;2023-04-24T02:43:25;7.73;;;4.77;;
817;SDS011;391;51.052;6.954;2023-04-24T02:45:30;3.80;;;3.50;;
817;SDS011;391;51.052;6.954;2023-04-24T02:47:37;6.90;;;5.57;;
817;SDS011;391;51.052;6.954;2023-04-24T02:49:41;5.73;;;5.00;;
817;SDS011;391;51.052;6.954;2023-04-24T02:51:51;8.73;;;5.33;;
817;SDS011;391;51.052;6.954;2023-04-24T02:53:56;7.67;;;5.87;;
817;SDS011;391;51.052;6.954;2023-04-24T02:56:00;5.67;;;4.47;;
817;SDS011;391;51.052;6.954;2023-04-24T02:58:03;6.33;;;5.70;;
817;SDS011;391;51.052;6.954;2023-04-24T03:00:08;5.40;;;4.90;;
817;SDS011;391;51.052;6.954;2023-04-24T03:02:15;6.07;;;5.27;;
817;SDS011;391;51.052;6.954;2023-04-24T03:04:19;6.03;;;4.97;;
817;SDS011;391;51.052;6.954;2023-04-24T03:06:23;5.07;;;4.63;;
817;SDS011;391;51.052;6.954;2023-04-24T03:08:26;7.40;;;4.50;;
817;SDS011;391;51.052;6.954;2023-04-24T03:10:30;6.03;;;5.43;;
817;SDS011;391;51.052;6.954;2023-04-24T03:12:34;5.17;;;4.50;;
817;SDS011;391;51.052;6.954;2023-04-24T03:14:37;7.77;;;5.43;;
817;SDS011;391;51.052;6.954;2023-04-24T03:16:41;7.17;;;5.23;;
817;SDS011;391;51.052;6.954;2023-04-24T03:18:46;7.27;;;5.80;;
817;SDS011;391;51.052;6.954;2023-04-24T03:20:50;5.70;;;5.20;;
817;SDS011;391;51.052;6.954;2023-04-24T03:22:54;7.47;;;5.47;;
817;SDS011;391;51.052;6.954;2023-04-24T03:24:58;6.87;;;5.50;;
817;SDS011;391;51.052;6.954;2023-04-24T03:27:01;9.27;;;5.70;;
817;SDS011;391;51.052;6.954;2023-04-24T03:29:25;6.27;;;4.87;;
817;SDS011;391;51.052;6.954;2023-04-24T03:31:31;10.50;;;6.83;;
817;SDS011;391;51.052;6.954;2023-04-24T03:33:35;7.50;;;6.20;;
817;SDS011;391;51.052;6.954;2023-04-24T03:35:40;5.60;;;5.10;;
817;SDS011;391;51.052;6.954;2023-04-24T03:37:46;6.23;;;5.07;;
817;SDS011;391;51.052;6.954;2023-04-24T03:40:13;7.30;;;6.60;;
817;SDS011;391;51.052;6.954;2023-04-24T03:42:16;7.80;;;6.73;;
817;SDS011;391;51.052;6.954;2023-04-24T03:44:30;9.30;;;5.63;;
817;SDS011;391;51.052;6.954;2023-04-24T03:46:33;6.70;;;6.00;;
817;SDS011;391;51.052;6.954;2023-04-24T03:48:37;7.57;;;6.27;;
817;SDS011;391;51.052;6.954;2023-04-24T03:50:44;7.10;;;5.50;;
817;SDS011;391;51.052;6.954;2023-04-24T03:52:48;8.77;;;6.60;;
817;SDS011;391;51.052;6.954;2023-04-24T03:55:03;8.07;;;7.30;;
817;SDS011;391;51.052;6.954;2023-04-24T03:57:12;7.10;;;6.13;;
817;SDS011;391;51.052;6.954;2023-04-24T03:59:26;6.97;;;6.23;;
817;SDS011;391;51.052;6.954;2023-04-24T04:01:44;8.30;;;5.67;;
817;SDS011;391;51.052;6.954;2023-04-24T04:03:50;7.50;;;5.87;;
817;SDS011;391;51.052;6.954;2023-04-24T04:05:59;8.63;;;5.60;;
817;SDS011;391;51.052;6.954;2023-04-24T04:08:02;7.03;;;6.33;;
817;SDS011;391;51.052;6.954;2023-04-24T04:10:06;5.60;;;5.10;;
817;SDS011;391;51.052;6.954;2023-04-24T04:12:11;7.40;;;6.13;;
817;SDS011;391;51.052;6.954;2023-04-24T04:14:23;5.80;;;5.17;;
817;SDS011;391;51.052;6.954;2023-04-24T04:16:31;6.53;;;5.93;;
817;SDS011;391;51.052;6.954;2023-04-24T04:18:38;7.00;;;6.20;;
817;SDS011;391;51.052;6.954;2023-04-24T04:20:47;6.00;;;5.40;;
817;SDS011;391;51.052;6.954;2023-04-24T04:22:54;5.77;;;5.27;;
817;SDS011;391;51.052;6.954;2023-04-24T04:25:09;6.03;;;5.43;;
817;SDS011;391;51.052;6.954;2023-04-24T04:27:22;6.87;;;6.17;;
817;SDS011;391;51.052;6.954;2023-04-24T04:29:35;7.63;;;5.80;;
817;SDS011;391;51.052;6.954;2023-04-24T04:31:42;6.00;;;5.50;;
817;SDS011;391;51.052;6.954;2023-04-24T04:33:48;7.23;;;6.53;;
817;SDS011;391;51.052;6.954;2023-04-24T04:35:51;9.97;;;5.17;;
817;SDS011;391;51.052;6.954;2023-04-24T04:37:57;5.93;;;5.43;;
817;SDS011;391;51.052;6.954;2023-04-24T04:40:34;5.90;;;5.40;;
817;SDS011;391;51.052;6.954;2023-04-24T04:42:40;4.97;;;4.57;;
817;SDS011;391;51.052;6.954;2023-04-24T04:44:44;6.97;;;6.03;;
817;SDS011;391;51.052;6.954;2023-04-24T04:46:54;7.60;;;6.40;;
817;SDS011;391;51.052;6.954;2023-04-24T04:49:02;13.80;;;9.90;;
817;SDS011;391;51.052;6.954;2023-04-24T04:51:06;6.50;;;5.87;;
817;SDS011;391;51.052;6.954;2023-04-24T04:53:10;4.90;;;4.50;;
817;SDS011;391;51.052;6.954;2023-04-24T04:55:14;6.23;;;4.70;;
817;SDS011;391;51.052;6.954;2023-04-24T04:57:41;5.30;;;4.83;;
817;SDS011;391;51.052;6.954;2023-04-24T04:59:44;5.40;;;4.90;;
817;SDS011;391;51.052;6.954;2023-04-24T05:01:56;5.33;;;4.77;;
817;SDS011;391;51.052;6.954;2023-04-24T05:04:00;7.27;;;5.23;;
817;SDS011;391;51.052;6.954;2023-04-24T05:06:03;5.90;;;4.30;;
817;SDS011;391;51.052;6.954;2023-04-24T05:08:12;4.90;;;4.50;;
817;SDS011;391;51.052;6.954;2023-04-24T05:10:27;5.57;;;5.00;;
817;SDS011;391;51.052;6.954;2023-04-24T05:12:32;4.87;;;4.27;;
817;SDS011;391;51.052;6.954;2023-04-24T05:14:37;5.20;;;4.70;;
817;SDS011;391;51.052;6.954;2023-04-24T05:16:41;7.57;;;4.00;;
817;SDS011;391;51.052;6.954;2023-04-24T05:18:46;5.87;;;4.87;;
817;SDS011;391;51.052;6.954;2023-04-24T05:20:54;5.10;;;4.67;;
817;SDS011;391;51.052;6.954;2023-04-24T05:22:59;5.83;;;4.20;;
817;SDS011;391;51.052;6.954;2023-04-24T05:25:05;5.47;;;4.50;;
817;SDS011;391;51.052;6.954;2023-04-24T05:27:21;4.97;;;4.17;;
817;SDS011;391;51.052;6.954;2023-04-24T05:29:25;5.43;;;4.93;;
817;SDS011;391;51.052;6.954;2023-04-24T05:31:29;4.60;;;4.07;;
817;SDS011;391;51.052;6.954;2023-04-24T05:33:32;6.53;;;4.97;;
817;SDS011;391;51.052;6.954;2023-04-24T05:35:36;4.53;;;4.00;;
817;SDS011;391;51.052;6.954;2023-04-24T05:37:40;4.30;;;3.90;;
817;SDS011;391;51.052;6.954;2023-04-24T05:39:44;6.70;;;4.27;;
817;SDS011;391;51.052;6.954;2023-04-24T05:41:49;5.70;;;4.40;;
817;SDS011;391;51.052;6.954;2023-04-24T05:43:52;8.03;;;4.90;;
817;SDS011;391;51.052;6.954;2023-04-24T05:45:56;6.73;;;5.20;;
817;SDS011;391;51.052;6.954;2023-04-24T05:48:00;6.60;;;4.57;;
817;SDS011;391;51.052;6.954;2023-04-24T05:50:04;5.10;;;4.13;;
817;SDS011;391;51.052;6.954;2023-04-24T05:52:08;5.07;;;4.60;;
817;SDS011;391;51.052;6.954;2023-04-24T05:54:14;6.53;;;5.53;;
817;SDS011;391;51.052;6.954;2023-04-24T05:56:17;7.73;;;5.00;;
817;SDS011;391;51.052;6.954;2023-04-24T05:58:24;6.40;;;5.23;;
817;SDS011;391;51.052;6.954;2023-04-24T06:00:29;5.00;;;4.50;;
817;SDS011;391;51.052;6.954;2023-04-24T06:02:38;7.77;;;5.40;;
817;SDS011;391;51.052;6.954;2023-04-24T06:04:45;4.53;;;4.13;;
817;SDS011;391;51.052;6.954;2023-04-24T06:06:49;5.67;;;4.97;;
817;SDS011;391;51.052;6.954;2023-04-24T06:08:57;4.70;;;4.13;;
817;SDS011;391;51.052;6.954;2023-04-24T06:11:02;7.80;;;4.20;;
817;SDS011;391;51.052;6.954;2023-04-24T06:13:07;4.23;;;3.93;;
817;SDS011;391;51.052;6.954;2023-04-24T06:15:15;4.00;;;3.60;;
817;SDS011;391;51.052;6.954;2023-04-24T06:17:32;4.13;;;3.73;;
817;SDS011;391;51.052;6.954;2023-04-24T06:19:35;4.60;;;2.90;;
817;SDS011;391;51.052;6.954;2023-04-24T06:21:39;4.00;;;3.27;;
817;SDS011;391;51.052;6.954;2023-04-24T06:23:43;3.70;;;3.40;;
817;SDS011;391;51.052;6.954;2023-04-24T06:25:49;4.93;;;2.73;;
817;SDS011;391;51.052;6.954;2023-04-24T06:27:53;3.27;;;2.90;;
817;SDS011;391;51.052;6.954;2023-04-24T06:29:56;2.80;;;2.60;;
817;SDS011;391;51.052;6.954;2023-04-24T06:32:01;4.30;;;3.10;;
817;SDS011;391;51.052;6.954;2023-04-24T06:34:07;2.80;;;2.17;;
817;SDS011;391;51.052;6.954;2023-04-24T06:36:10;3.87;;;2.40;;
817;SDS011;391;51.052;6.954;2023-04-24T06:38:14;2.40;;;2.20;;
817;SDS011;391;51.052;6.954;2023-04-24T06:40:18;2.30;;;2.10;;
817;SDS011;391;51.052;6.954;2023-04-24T06:42:21;2.30;;;2.07;;
817;SDS011;391;51.052;6.954;2023-04-24T06:44:26;1.90;;;1.70;;
817;SDS011;391;51.052;6.954;2023-04-24T06:46:30;4.23;;;2.17;;
817;SDS011;391;51.052;6.954;2023-04-24T06:48:35;2.00;;;1.33;;
817;SDS011;391;51.052;6.954;2023-04-24T06:50:39;2.00;;;1.80;;
817;SDS011;391;51.052;6.954;2023-04-24T06:52:42;2.03;;;1.67;;
817;SDS011;391;51.052;6.954;2023-04-24T06:54:46;3.33;;;2.13;;
817;SDS011;391;51.052;6.954;2023-04-24T06:56:49;1.97;;;1.77;;
817;SDS011;391;51.052;6.954;2023-04-24T06:58:55;2.63;;;2.00;;
817;SDS011;391;51.052;6.954;2023-04-24T07:00:58;2.10;;;1.80;;
817;SDS011;391;51.052;6.954;2023-04-24T07:03:02;2.17;;;1.77;;
817;SDS011;391;51.052;6.954;2023-04-24T07:05:08;3.13;;;1.83;;
817;SDS011;391;51.052;6.954;2023-04-24T07:07:13;2.00;;;1.80;;
817;SDS011;391;51.052;6.954;2023-04-24T07:09:17;1.77;;;1.67;;
817;SDS011;391;51.052;6.954;2023-04-24T07:11:21;2.03;;;1.93;;
817;SDS011;391;51.052;6.954;2023-04-24T07:13:25;1.83;;;1.67;;
817;SDS011;391;51.052;6.954;2023-04-24T07:15:29;2.23;;;1.57;;
817;SDS011;391;51.052;6.954;2023-04-24T07:17:34;2.60;;;1.83;;
817;SDS011;391;51.052;6.954;2023-04-24T07:19:38;2.27;;;1.87;;
817;SDS011;391;51.052;6.954;2023-04-24T07:21:43;3.30;;;2.13;;
817;SDS011;391;51.052;6.954;2023-04-24T07:23:47;1.83;;;1.30;;
817;SDS011;391;51.052;6.954;2023-04-24T07:25:50;3.30;;;2.03;;
817;SDS011;391;51.052;6.954;2023-04-24T07:27:57;2.33;;;1.80;;
817;SDS011;391;51.052;6.954;2023-04-24T07:30:02;3.30;;;2.30;;
817;SDS011;391;51.052;6.954;2023-04-24T07:32:06;2.27;;;1.80;;
817;SDS011;391;51.052;6.954;2023-04-24T07:34:11;2.90;;;1.83;;
817;SDS011;391;51.052;6.954;2023-04-24T07:36:15;2.30;;;2.10;;
817;SDS011;391;51.052;6.954;2023-04-24T07:38:22;3.20;;;2.73;;
817;SDS011;391;51.052;6.954;2023-04-24T07:40:27;3.30;;;2.80;;
817;SDS011;391;51.052;6.954;2023-04-24T07:42:31;3.40;;;2.50;;
817;SDS011;391;51.052;6.954;2023-04-24T07:44:36;2.20;;;2.03;;
817;SDS011;391;51.052;6.954;2023-04-24T07:46:40;2.43;;;2.23;;
817;SDS011;391;51.052;6.954;2023-04-24T07:48:43;3.93;;;2.53;;
817;SDS011;391;51.052;6.954;2023-04-24T07:50:49;2.23;;;2.03;;
817;SDS011;391;51.052;6.954;2023-04-24T07:52:53;2.80;;;1.70;;
817;SDS011;391;51.052;6.954;2023-04-24T07:54:58;1.50;;;1.40;;
817;SDS011;391;51.052;6.954;2023-04-24T07:57:02;1.77;;;1.67;;
817;SDS011;391;51.052;6.954;2023-04-24T07:59:06;1.43;;;1.33;;
817;SDS011;391;51.052;6.954;2023-04-24T08:01:09;3.00;;;1.90;;
817;SDS011;391;51.052;6.954;2023-04-24T08:03:14;2.30;;;2.07;;
817;SDS011;391;51.052;6.954;2023-04-24T08:05:20;1.47;;;1.37;;
817;SDS011;391;51.052;6.954;2023-04-24T08:07:24;2.03;;;1.70;;
817;SDS011;391;51.052;6.954;2023-04-24T08:09:27;1.50;;;1.40;;
817;SDS011;391;51.052;6.954;2023-04-24T08:11:32;0.90;;;0.80;;
817;SDS011;391;51.052;6.954;2023-04-24T08:13:35;1.97;;;1.00;;
817;SDS011;391;51.052;6.954;2023-04-24T08:15:39;1.70;;;1.20;;
817;SDS011;391;51.052;6.954;2023-04-24T08:17:42;2.03;;;1.43;;
817;SDS011;391;51.052;6.954;2023-04-24T08:19:46;3.40;;;1.90;;
817;SDS011;391;51.052;6.954;2023-04-24T08:21:50;2.60;;;2.20;;
817;SDS011;391;51.052;6.954;2023-04-24T08:23:53;8.33;;;2.37;;
817;SDS011;391;51.052;6.954;2023-04-24T08:25:57;3.33;;;2.27;;
817;SDS011;391;51.052;6.954;2023-04-24T08:28:03;3.87;;;2.07;;
817;SDS011;391;51.052;6.954;2023-04-24T08:30:08;4.80;;;2.03;;
817;SDS011;391;51.052;6.954;2023-04-24T08:32:12;2.40;;;2.00;;
817;SDS011;391;51.052;6.954;2023-04-24T08:34:15;2.07;;;1.87;;
817;SDS011;391;51.052;6.954;2023-04-24T08:36:19;1.70;;;1.60;;
817;SDS011;391;51.052;6.954;2023-04-24T08:38:24;2.40;;;1.70;;
817;SDS011;391;51.052;6.954;2023-04-24T08:40:28;2.83;;;1.80;;
817;SDS011;391;51.052;6.954;2023-04-24T08:42:32;3.33;;;1.83;;
817;SDS011;391;51.052;6.954;2023-04-24T08:44:39;3.30;;;1.97;;
817;SDS011;391;51.052;6.954;2023-04-24T08:46:46;2.23;;;1.80;;
817;SDS011;391;51.052;6.954;2023-04-24T08:48:51;2.23;;;1.90;;
817;SDS011;391;51.052;6.954;2023-04-24T08:50:55;2.77;;;2.23;;
817;SDS011;391;51.052;6.954;2023-04-24T08:53:00;2.23;;;2.03;;
817;SDS011;391;51.052;6.954;2023-04-24T08:55:06;2.93;;;2.50;;
817;SDS011;391;51.052;6.954;2023-04-24T08:57:10;1.93;;;1.83;;
817;SDS011;391;51.052;6.954;2023-04-24T08:59:14;3.03;;;2.73;;
817;SDS011;391;51.052;6.954;2023-04-24T09:01:20;2.47;;;2.03;;
817;SDS011;391;51.052;6.954;2023-04-24T09:03:24;3.57;;;3.23;;
817;SDS011;391;51.052;6.954;2023-04-24T09:05:30;3.17;;;2.87;;
817;SDS011;391;51.052;6.954;2023-04-24T09:07:34;3.93;;;3.13;;
817;SDS011;391;51.052;6.954;2023-04-24T09:09:38;3.20;;;2.90;;
817;SDS011;391;51.052;6.954;2023-04-24T09:11:44;5.83;;;3.93;;
817;SDS011;391;51.052;6.954;2023-04-24T09:13:47;4.07;;;3.10;;
817;SDS011;391;51.052;6.954;2023-04-24T09:15:51;4.17;;;3.80;;
817;SDS011;391;51.052;6.954;2023-04-24T09:17:57;2.97;;;2.77;;
817;SDS011;391;51.052;6.954;2023-04-24T09:20:01;3.50;;;3.10;;
817;SDS011;391;51.052;6.954;2023-04-24T09:22:04;3.50;;;3.20;;
817;SDS011;391;51.052;6.954;2023-04-24T09:24:14;3.43;;;3.13;;
817;SDS011;391;51.052;6.954;2023-04-24T09:26:20;3.30;;;3.00;;
817;SDS011;391;51.052;6.954;2023-04-24T09:28:25;4.10;;;3.60;;
817;SDS011;391;51.052;6.954;2023-04-24T09:30:30;4.30;;;3.63;;
817;SDS011;391;51.052;6.954;2023-04-24T09:32:33;3.87;;;3.20;;
817;SDS011;391;51.052;6.954;2023-04-24T09:34:38;3.70;;;3.23;;
817;SDS011;391;51.052;6.954;2023-04-24T09:36:42;3.80;;;3.50;;
817;SDS011;391;51.052;6.954;2023-04-24T09:38:46;7.83;;;4.87;;
817;SDS011;391;51.052;6.954;2023-04-24T09:40:49;4.17;;;3.60;;
817;SDS011;391;51.052;6.954;2023-04-24T09:42:53;4.40;;;3.53;;
817;SDS011;391;51.052;6.954;2023-04-24T09:44:58;5.87;;;3.90;;
817;SDS011;391;51.052;6.954;2023-04-24T09:47:15;3.83;;;3.37;;
817;SDS011;391;51.052;6.954;2023-04-24T09:49:21;3.70;;;3.40;;
817;SDS011;391;51.052;6.954;2023-04-24T09:51:34;4.17;;;3.70;;
817;SDS011;391;51.052;6.954;2023-04-24T09:53:39;4.20;;;3.80;;
817;SDS011;391;51.052;6.954;2023-04-24T09:55:47;4.40;;;4.00;;
817;SDS011;391;51.052;6.954;2023-04-24T09:57:53;6.13;;;3.70;;
817;SDS011;391;51.052;6.954;2023-04-24T09:59:57;5.53;;;4.87;;
817;SDS011;391;51.052;6.954;2023-04-24T10:02:01;5.63;;;4.70;;
817;SDS011;391;51.052;6.954;2023-04-24T10:04:04;7.23;;;4.90;;
817;SDS011;391;51.052;6.954;2023-04-24T10:06:08;6.83;;;5.57;;
817;SDS011;391;51.052;6.954;2023-04-24T10:08:15;5.60;;;5.00;;
817;SDS011;391;51.052;6.954;2023-04-24T10:10:19;12.53;;;8.90;;
817;SDS011;391;51.052;6.954;2023-04-24T10:12:23;9.77;;;8.00;;
817;SDS011;391;51.052;6.954;2023-04-24T10:14:27;6.13;;;5.63;;
817;SDS011;391;51.052;6.954;2023-04-24T10:16:30;5.73;;;5.10;;
817;SDS011;391;51.052;6.954;2023-04-24T10:18:34;6.73;;;5.60;;
817;SDS011;391;51.052;6.954;2023-04-24T10:20:39;6.07;;;4.77;;
817;SDS011;391;51.052;6.954;2023-04-24T10:22:43;8.37;;;5.40;;
817;SDS011;391;51.052;6.954;2023-04-24T10:24:51;6.60;;;5.20;;
817;SDS011;391;51.052;6.954;2023-04-24T10:26:55;5.70;;;5.00;;
817;SDS011;391;51.052;6.954;2023-04-24T10:28:59;7.27;;;5.80;;
817;SDS011;391;51.052;6.954;2023-04-24T10:31:04;6.33;;;5.40;;
817;SDS011;391;51.052;6.954;2023-04-24T10:33:08;6.40;;;4.40;;
817;SDS011;391;51.052;6.954;2023-04-24T10:35:13;6.60;;;4.60;;
817;SDS011;391;51.052;6.954;2023-04-24T10:37:17;6.70;;;4.67;;
817;SDS011;391;51.052;6.954;2023-04-24T10:39:22;7.57;;;4.70;;
817;SDS011;391;51.052;6.954;2023-04-24T10:41:31;11.10;;;5.20;;
817;SDS011;391;51.052;6.954;2023-04-24T10:43:34;4.53;;;4.13;;
817;SDS011;391;51.052;6.954;2023-04-24T10:45:38;4.77;;;4.30;;
817;SDS011;391;51.052;6.954;2023-04-24T10:47:42;5.30;;;4.80;;
817;SDS011;391;51.052;6.954;2023-04-24T10:49:46;4.57;;;4.17;;
817;SDS011;391;51.052;6.954;2023-04-24T10:51:53;7.90;;;5.40;;
817;SDS011;391;51.052;6.954;2023-04-24T10:54:04;5.07;;;4.40;;
817;SDS011;391;51.052;6.954;2023-04-24T10:56:25;6.53;;;3.87;;
817;SDS011;391;51.052;6.954;2023-04-24T10:58:37;5.17;;;3.93;;
817;SDS011;391;51.052;6.954;2023-04-24T11:00:43;4.40;;;2.87;;
817;SDS011;391;51.052;6.954;2023-04-24T11:02:49;7.10;;;3.37;;
817;SDS011;391;51.052;6.954;2023-04-24T11:04:57;7.93;;;3.77;;
817;SDS011;391;51.052;6.954;2023-04-24T11:07:01;8.80;;;3.00;;
817;SDS011;391;51.052;6.954;2023-04-24T11:09:06;5.03;;;3.17;;
817;SDS011;391;51.052;6.954;2023-04-24T11:11:11;7.50;;;5.00;;
817;SDS011;391;51.052;6.954;2023-04-24T11:13:16;9.03;;;3.57;;
817;SDS011;391;51.052;6.954;2023-04-24T11:15:21;7.40;;;3.23;;
817;SDS011;391;51.052;6.954;2023-04-24T11:17:31;3.70;;;3.00;;
817;SDS011;391;51.052;6.954;2023-04-24T11:19:36;7.90;;;3.50;;
817;SDS011;391;51.052;6.954;2023-04-24T11:21:42;6.40;;;3.43;;
817;SDS011;391;51.052;6.954;2023-04-24T11:23:47;9.37;;;3.50;;
817;SDS011;391;51.052;6.954;2023-04-24T11:26:05;5.57;;;2.83;;
817;SDS011;391;51.052;6.954;2023-04-24T11:28:14;5.53;;;3.53;;
817;SDS011;391;51.052;6.954;2023-04-24T11:30:19;8.50;;;3.77;;
817;SDS011;391;51.052;6.954;2023-04-24T11:32:26;10.53;;;3.70;;
817;SDS011;391;51.052;6.954;2023-04-24T11:34:31;5.60;;;3.63;;
817;SDS011;391;51.052;6.954;2023-04-24T11:36:35;5.70;;;3.63;;
817;SDS011;391;51.052;6.954;2023-04-24T11:38:39;5.97;;;4.00;;
817;SDS011;391;51.052;6.954;2023-04-24T11:40:43;9.10;;;3.67;;
817;SDS011;391;51.052;6.954;2023-04-24T11:42:47;7.17;;;3.93;;
817;SDS011;391;51.052;6.954;2023-04-24T11:44:52;8.63;;;4.30;;
817;SDS011;391;51.052;6.954;2023-04-24T11:46:58;10.03;;;5.27;;
817;SDS011;391;51.052;6.954;2023-04-24T11:49:02;7.10;;;3.80;;
817;SDS011;391;51.052;6.954;2023-04-24T11:51:05;3.80;;;3.33;;
817;SDS011;391;51.052;6.954;2023-04-24T11:53:13;6.70;;;4.20;;
817;SDS011;391;51.052;6.954;2023-04-24T11:55:23;3.97;;;3.57;;
817;SDS011;391;51.052;6.954;2023-04-24T11:57:29;8.93;;;4.00;;
817;SDS011;391;51.052;6.954;2023-04-24T11:59:35;10.53;;;8.93;;
817;SDS011;391;51.052;6.954;2023-04-24T12:01:43;6.20;;;4.20;;
817;SDS011;391;51.052;6.954;2023-04-24T12:03:49;3.50;;;3.20;;
817;SDS011;391;51.052;6.954;2023-04-24T12:06:04;9.30;;;3.87;;
817;SDS011;391;51.052;6.954;2023-04-24T12:08:09;5.10;;;3.77;;
817;SDS011;391;51.052;6.954;2023-04-24T12:10:13;4.30;;;3.90;;
817;SDS011;391;51.052;6.954;2023-04-24T12:12:17;5.33;;;3.17;;
817;SDS011;391;51.052;6.954;2023-04-24T12:14:20;4.70;;;4.20;;
817;SDS011;391;51.052;6.954;2023-04-24T12:16:25;5.30;;;3.30;;
817;SDS011;391;51.052;6.954;2023-04-24T12:18:29;5.20;;;3.20;;
817;SDS011;391;51.052;6.954;2023-04-24T12:20:35;9.00;;;3.50;;
817;SDS011;391;51.052;6.954;2023-04-24T12:22:44;6.60;;;3.57;;
817;SDS011;391;51.052;6.954;2023-04-24T12:24:56;6.00;;;3.37;;
817;SDS011;391;51.052;6.954;2023-04-24T12:27:00;4.17;;;3.03;;
817;SDS011;391;51.052;6.954;2023-04-24T12:29:04;5.63;;;3.30;;
817;SDS011;391;51.052;6.954;2023-04-24T12:31:07;3.23;;;2.93;;
817;SDS011;391;51.052;6.954;2023-04-24T12:33:11;4.27;;;3.30;;
817;SDS011;391;51.052;6.954;2023-04-24T12:35:18;7.53;;;2.83;;
817;SDS011;391;51.052;6.954;2023-04-24T12:37:25;7.30;;;3.23;;
817;SDS011;391;51.052;6.954;2023-04-24T12:39:29;4.23;;;2.77;;
817;SDS011;391;51.052;6.954;2023-04-24T12:41:33;4.63;;;3.93;;
817;SDS011;391;51.052;6.954;2023-04-24T12:43:36;4.50;;;3.13;;
817;SDS011;391;51.052;6.954;2023-04-24T12:45:40;7.47;;;3.10;;
817;SDS011;391;51.052;6.954;2023-04-24T12:47:44;3.50;;;2.67;;
817;SDS011;391;51.052;6.954;2023-04-24T12:49:51;5.37;;;3.03;;
817;SDS011;391;51.052;6.954;2023-04-24T12:51:54;3.43;;;3.13;;
817;SDS011;391;51.052;6.954;2023-04-24T12:53:59;5.60;;;2.93;;
817;SDS011;391;51.052;6.954;2023-04-24T12:56:03;2.97;;;2.67;;
817;SDS011;391;51.052;6.954;2023-04-24T12:58:07;3.93;;;3.53;;
817;SDS011;391;51.052;6.954;2023-04-24T13:00:11;5.33;;;3.20;;
817;SDS011;391;51.052;6.954;2023-04-24T13:02:15;4.00;;;2.67;;
817;SDS011;391;51.052;6.954;2023-04-24T13:04:19;5.10;;;3.10;;
817;SDS011;391;51.052;6.954;2023-04-24T13:06:23;4.27;;;3.17;;
817;SDS011;391;51.052;6.954;2023-04-24T13:08:28;4.47;;;2.70;;
817;SDS011;391;51.052;6.954;2023-04-24T13:10:33;4.87;;;2.50;;
817;SDS011;391;51.052;6.954;2023-04-24T13:12:37;3.30;;;3.00;;
817;SDS011;391;51.052;6.954;2023-04-24T13:14:40;5.53;;;3.07;;
817;SDS011;391;51.052;6.954;2023-04-24T13:16:44;8.50;;;3.60;;
817;SDS011;391;51.052;6.954;2023-04-24T13:18:47;9.40;;;3.40;;
817;SDS011;391;51.052;6.954;2023-04-24T13:20:51;3.77;;;2.50;;
817;SDS011;391;51.052;6.954;2023-04-24T13:22:54;6.73;;;3.17;;
817;SDS011;391;51.052;6.954;2023-04-24T13:24:57;4.60;;;3.83;;